createdAt,value
2023-01-17T00:02:13.770Z,60925.53
2023-01-17T00:04:59.483Z,60927.66
2023-01-17T00:07:46.299Z,60932.75
2023-01-17T00:10:19.067Z,60935.97
2023-01-17T00:12:49.511Z,60932.34
2023-01-17T00:15:19.922Z,60944.09
2023-01-17T00:17:49.126Z,60917.63
2023-01-17T00:20:38.175Z,60934.06
2023-01-17T00:23:26.108Z,60929.00
2023-01-17T00:26:04.601Z,60929.25
2023-01-17T00:28:35.277Z,60930.88
2023-01-17T00:31:04.637Z,60927.66
2023-01-17T00:33:32.100Z,60930.88
2023-01-17T00:36:00.141Z,60930.75
2023-01-17T00:38:29.751Z,60931.94
2023-01-17T00:41:02.658Z,60930.63
2023-01-17T00:43:49.736Z,60935.13
2023-01-17T00:46:36.325Z,60929.13
2023-01-17T00:49:22.842Z,60928.47
2023-01-17T00:52:08.780Z,60932.34
2023-01-17T00:54:54.665Z,60928.59
2023-01-17T00:57:42.166Z,60926.47
2023-01-17T01:00:30.226Z,60916.34
2023-01-17T01:03:16.178Z,60915.94
2023-01-17T01:06:02.212Z,60917.94
2023-01-17T01:08:49.917Z,60921.25
2023-01-17T01:11:39.254Z,60919.53
2023-01-17T01:14:29.403Z,60889.66
2023-01-17T01:17:15.478Z,60917.38
2023-01-17T01:20:01.470Z,60899.25
2023-01-17T01:22:47.328Z,60910.88
2023-01-17T01:25:33.727Z,60909.53
2023-01-17T01:28:23.880Z,60907.78
2023-01-17T01:31:11.009Z,60901.91
2023-01-17T01:33:39.565Z,60908.31
2023-01-17T01:36:10.006Z,60906.06
2023-01-17T01:38:38.771Z,60884.56
2023-01-17T01:41:07.671Z,60889.66
2023-01-17T01:43:47.066Z,60887.94
2023-01-17T01:46:19.786Z,60886.59
2023-01-17T01:48:53.794Z,60880.56
2023-01-17T01:51:29.148Z,60880.03
2023-01-17T01:54:03.776Z,60884.97
2023-01-17T01:56:32.954Z,60882.59
2023-01-17T01:59:04.234Z,60877.50
2023-01-17T02:01:38.638Z,60880.03
2023-01-17T02:04:09.997Z,60862.44
2023-01-17T02:06:41.342Z,60868.72
2023-01-17T02:09:12.443Z,60883.25
2023-01-17T02:11:42.210Z,60869.50
2023-01-17T02:14:16.367Z,60882.59
2023-01-17T02:17:13.411Z,60863.22
2023-01-17T02:20:51.113Z,60862.56
2023-01-17T02:24:11.170Z,60850.28
2023-01-17T02:27:04.738Z,60860.94
2023-01-17T02:30:14.563Z,60868.31
2023-01-17T02:32:56.527Z,60855.50
2023-01-17T02:35:35.881Z,60866.56
2023-01-17T02:38:28.264Z,60857.63
2023-01-17T02:41:01.858Z,60857.50
2023-01-17T02:43:30.614Z,60860.94
2023-01-17T02:45:58.999Z,60864.97
2023-01-17T02:48:32.179Z,60855.50
2023-01-17T02:51:42.341Z,60860.16
2023-01-17T02:54:29.136Z,60860.81
2023-01-17T02:57:15.361Z,60853.91
2023-01-17T02:59:56.988Z,60857.22
2023-01-17T03:02:32.326Z,60854.97
2023-01-17T03:05:05.502Z,60861.91
2023-01-17T03:07:35.247Z,60860.28
2023-01-17T03:10:05.424Z,60859.38
2023-01-17T03:12:36.951Z,60856.81
2023-01-17T03:15:10.858Z,60862.97
2023-01-17T03:17:42.560Z,60855.63
2023-01-17T03:20:13.564Z,60848.44
2023-01-17T03:22:41.892Z,60856.16
2023-01-17T03:25:10.538Z,60854.19
2023-01-17T03:27:38.890Z,60849.75
2023-01-17T03:30:09.171Z,60858.28
2023-01-17T03:32:37.569Z,60851.22
2023-01-17T03:35:07.139Z,60857.50
2023-01-17T03:37:36.836Z,60851.75
2023-01-17T03:40:06.200Z,60832.16
2023-01-17T03:42:34.695Z,60833.75
2023-01-17T03:45:03.191Z,60854.03
2023-01-17T03:47:31.545Z,60842.16
2023-01-17T03:49:59.879Z,60849.09
2023-01-17T03:52:28.269Z,60851.63
2023-01-17T03:54:58.048Z,60843.88
2023-01-17T03:57:26.371Z,60844.19
2023-01-17T03:59:54.802Z,60834.81
2023-01-17T04:02:24.225Z,60838.84
2023-01-17T04:04:52.719Z,60828.81
2023-01-17T04:07:21.068Z,60821.38
2023-01-17T04:09:49.518Z,60817.50
2023-01-17T04:12:19.221Z,60815.63
2023-01-17T04:14:48.258Z,60818.81
2023-01-17T04:17:20.096Z,60826.28
2023-01-17T04:19:48.877Z,60811.34
2023-01-17T04:22:17.250Z,60813.22
2023-01-17T04:24:45.611Z,60815.63
2023-01-17T04:27:14.699Z,60814.31
2023-01-17T04:29:46.602Z,60809.22
2023-01-17T04:32:15.827Z,60813.34
2023-01-17T04:34:44.149Z,60815.38
2023-01-17T04:37:12.487Z,60794.31
2023-01-17T04:39:40.831Z,60799.50
2023-01-17T04:42:09.123Z,60795.63
2023-01-17T04:44:37.472Z,60789.50
2023-01-17T04:47:07.232Z,60786.56
2023-01-17T04:49:35.598Z,60780.84
2023-01-17T04:52:04.079Z,60779.34
2023-01-17T04:54:32.583Z,60779.34
2023-01-17T04:57:00.947Z,60776.44
2023-01-17T04:59:29.344Z,60771.25
2023-01-17T05:01:57.823Z,60758.16
2023-01-17T05:04:27.633Z,60762.72
2023-01-17T05:06:55.962Z,60770.72
2023-01-17T05:09:24.492Z,60769.25
2023-01-17T05:11:52.760Z,60768.72
2023-01-17T05:14:21.139Z,60769.75
2023-01-17T05:16:49.480Z,60779.25
2023-01-17T05:19:19.633Z,60770.59
2023-01-17T05:21:50.745Z,60766.31
2023-01-17T05:24:19.928Z,60748.06
2023-01-17T05:26:54.866Z,60753.78
2023-01-17T05:29:23.677Z,60772.19
2023-01-17T05:31:51.954Z,60761.66
2023-01-17T05:34:20.316Z,60767.41
2023-01-17T05:36:49.962Z,60749.50
2023-01-17T05:39:18.394Z,60748.44
2023-01-17T05:41:47.026Z,60733.13
2023-01-17T05:44:16.307Z,60744.34
2023-01-17T05:46:44.667Z,60742.47
2023-01-17T05:49:13.085Z,60740.31
2023-01-17T05:51:41.394Z,60752.34
2023-01-17T05:54:11.106Z,60744.06
2023-01-17T05:56:39.457Z,60752.59
2023-01-17T05:59:07.795Z,60752.72
2023-01-17T06:01:36.111Z,60753.78
2023-01-17T06:04:04.497Z,60756.59
2023-01-17T06:06:32.846Z,60756.19
2023-01-17T06:09:01.291Z,60749.28
2023-01-17T06:11:31.847Z,60756.31
2023-01-17T06:14:00.186Z,60751.13
2023-01-17T06:16:28.555Z,60756.97
2023-01-17T06:18:56.906Z,60760.19
2023-01-17T06:21:25.278Z,60754.84
2023-01-17T06:23:56.409Z,60751.66
2023-01-17T06:26:24.683Z,60755.25
2023-01-17T06:28:54.407Z,60763.13
2023-01-17T06:31:22.738Z,60765.91
2023-01-17T06:33:51.138Z,60762.72
2023-01-17T06:36:19.515Z,60760.44
2023-01-17T06:38:51.647Z,60771.25
2023-01-17T06:41:20.001Z,60771.91
2023-01-17T06:43:48.442Z,60764.84
2023-01-17T06:46:18.162Z,60777.50
2023-01-17T06:48:48.752Z,60772.44
2023-01-17T06:51:17.436Z,60773.50
2023-01-17T06:53:45.985Z,60759.91
2023-01-17T06:56:14.290Z,60772.31
2023-01-17T06:58:42.660Z,60765.25
2023-01-17T07:01:13.134Z,60764.84
2023-01-17T07:03:43.287Z,60766.44
2023-01-17T07:06:11.860Z,60763.25
2023-01-17T07:08:40.471Z,60768.44
2023-01-17T07:11:09.631Z,60746.59
2023-01-17T07:13:39.511Z,60749.94
2023-01-17T07:16:09.241Z,60751.00
2023-01-17T07:18:37.639Z,60740.97
2023-01-17T07:21:15.228Z,60745.13
2023-01-17T07:23:43.664Z,60754.19
2023-01-17T07:26:12.055Z,60752.06
2023-01-17T07:28:40.444Z,60735.53
2023-01-17T07:31:09.963Z,60740.44
2023-01-17T07:33:38.370Z,60743.13
2023-01-17T07:36:10.229Z,60736.06
2023-01-17T07:38:38.777Z,60736.47
2023-01-17T07:41:07.223Z,60741.81
2023-01-17T07:43:36.673Z,60736.47
2023-01-17T07:46:07.941Z,60727.66
2023-01-17T07:48:36.998Z,60733.53
2023-01-17T07:51:07.148Z,60732.88
2023-01-17T07:53:35.588Z,60736.19
2023-01-17T07:56:05.665Z,60738.22
2023-01-17T07:58:35.571Z,60727.66
2023-01-17T08:01:05.571Z,60738.75
2023-01-17T08:03:36.663Z,60729.69
2023-01-17T08:06:05.416Z,60729.81
2023-01-17T08:08:35.273Z,60732.88
2023-01-17T08:11:03.651Z,60743.00
2023-01-17T08:13:31.971Z,60739.94
2023-01-17T08:16:02.459Z,60748.44
2023-01-17T08:18:31.256Z,60750.06
2023-01-17T08:20:59.721Z,60734.59
2023-01-17T08:23:28.085Z,60739.94
2023-01-17T08:26:01.975Z,60739.94
2023-01-17T08:28:30.484Z,60746.06
2023-01-17T08:30:58.893Z,60752.19
2023-01-17T08:33:27.215Z,60766.56
2023-01-17T08:35:56.164Z,60769.75
2023-01-17T08:38:24.756Z,60760.44
2023-01-17T08:40:53.155Z,60771.25
2023-01-17T08:43:22.967Z,60760.19
2023-01-17T08:45:55.962Z,60752.84
2023-01-17T08:48:24.653Z,60761.75
2023-01-17T08:50:53.261Z,60773.38
2023-01-17T08:53:23.191Z,60769.09
2023-01-17T08:55:59.795Z,60783.38
2023-01-17T08:58:31.491Z,60774.84
2023-01-17T09:01:02.735Z,60774.03
2023-01-17T09:03:31.840Z,60773.25
2023-01-17T09:06:05.438Z,60778.03
2023-01-17T09:08:34.705Z,60771.78
2023-01-17T09:11:05.673Z,60775.94
2023-01-17T09:13:35.480Z,60770.84
2023-01-17T09:16:04.482Z,60777.09
2023-01-17T09:18:34.322Z,60773.63
2023-01-17T09:21:12.390Z,60802.28
2023-01-17T09:23:41.027Z,60812.31
2023-01-17T09:26:17.619Z,60812.00
2023-01-17T09:28:47.441Z,60835.09
2023-01-17T09:31:17.590Z,60820.84
2023-01-17T09:33:46.262Z,60808.16
2023-01-17T09:36:14.836Z,60828.81
2023-01-17T09:38:43.620Z,60827.22
2023-01-17T09:41:27.656Z,60832.00
2023-01-17T09:44:05.825Z,60829.38
2023-01-17T09:46:40.318Z,60827.75
2023-01-17T09:49:14.083Z,60815.63
2023-01-17T09:51:43.530Z,60822.81
2023-01-17T09:54:23.033Z,60823.06
2023-01-17T09:57:02.329Z,60829.91
2023-01-17T09:59:45.630Z,60833.50
2023-01-17T10:02:41.685Z,60833.50
2023-01-17T10:05:33.269Z,60835.88
2023-01-17T10:08:20.037Z,60832.69
2023-01-17T10:11:15.170Z,60835.34
2023-01-17T10:13:54.140Z,60841.09
2023-01-17T10:16:38.851Z,60859.75
2023-01-17T10:19:24.229Z,60862.84
2023-01-17T10:22:17.417Z,60882.84
2023-01-17T10:25:10.502Z,60876.97
2023-01-17T10:27:43.269Z,60886.31
2023-01-17T10:30:19.821Z,60894.31
2023-01-17T10:32:50.838Z,60934.47
2023-01-17T10:35:28.263Z,61006.47
2023-01-17T10:37:59.799Z,61038.75
2023-01-17T10:40:38.447Z,61047.75
2023-01-17T10:43:16.247Z,61042.38
2023-01-17T10:45:54.359Z,61034.50
2023-01-17T10:48:39.947Z,61098.66
2023-01-17T10:51:23.098Z,61170.63
2023-01-17T10:54:18.064Z,61152.31
2023-01-17T10:56:46.544Z,61153.63
2023-01-17T10:59:30.642Z,61204.56
2023-01-17T11:01:59.751Z,61257.47
2023-01-17T11:04:37.188Z,61307.44
2023-01-17T11:07:15.020Z,61314.03
2023-01-17T11:09:45.674Z,61260.69
2023-01-17T11:12:29.598Z,61186.13
2023-01-17T11:15:05.391Z,61101.88
2023-01-17T11:17:35.298Z,61098.00
2023-01-17T11:20:21.084Z,61079.28
2023-01-17T11:23:08.488Z,61063.25
2023-01-17T11:25:37.221Z,61055.88
2023-01-17T11:28:08.543Z,61081.31
2023-01-17T11:30:36.929Z,61081.56
2023-01-17T11:33:08.861Z,61133.72
2023-01-17T11:35:45.468Z,61191.50
2023-01-17T11:38:20.033Z,61192.69
2023-01-17T11:40:49.972Z,61194.69
2023-01-17T11:43:26.807Z,61177.16
2023-01-17T11:46:10.500Z,61167.41
2023-01-17T11:48:40.329Z,61180.38
2023-01-17T11:51:29.809Z,61231.78
2023-01-17T11:54:16.757Z,61245.16
2023-01-17T11:56:46.444Z,61277.16
2023-01-17T11:59:33.543Z,61278.88
2023-01-17T12:02:38.546Z,61253.59
2023-01-17T12:05:24.313Z,61272.69
2023-01-17T12:08:05.154Z,61257.47
2023-01-17T12:10:47.054Z,61264.00
2023-01-17T12:13:42.659Z,61250.63
2023-01-17T12:16:29.715Z,61286.41
2023-01-17T12:19:17.939Z,61263.34
2023-01-17T12:21:58.151Z,61276.88
2023-01-17T12:25:04.189Z,61245.69
2023-01-17T12:27:42.628Z,61235.63
2023-01-17T12:30:31.928Z,61246.75
2023-01-17T12:33:29.403Z,61260.69
2023-01-17T12:36:02.766Z,61270.88
2023-01-17T12:38:39.115Z,61272.47
2023-01-17T12:41:14.684Z,61236.69
2023-01-17T12:43:44.741Z,61206.06
2023-01-17T12:46:21.224Z,61169.69
2023-01-17T12:48:53.931Z,61132.22
2023-01-17T12:51:29.471Z,61121.94
2023-01-17T12:54:05.300Z,61125.16
2023-01-17T12:56:41.512Z,61133.72
2023-01-17T12:59:18.406Z,61128.38
2023-01-17T13:01:57.864Z,61119.81
2023-01-17T13:04:33.260Z,61127.97
2023-01-17T13:07:13.743Z,61119.53
2023-01-17T13:09:47.445Z,61115.09
2023-01-17T13:12:20.656Z,61112.03
2023-01-17T13:14:50.065Z,61102.69
2023-01-17T13:17:34.007Z,61088.50
2023-01-17T13:20:11.005Z,61104.31
2023-01-17T13:22:40.571Z,61098.00
2023-01-17T13:25:30.813Z,61088.78
2023-01-17T13:28:22.943Z,61081.56
2023-01-17T13:31:19.552Z,61077.25
2023-01-17T13:34:16.215Z,61076.06
2023-01-17T13:37:04.671Z,61064.84
2023-01-17T13:40:05.812Z,61056.72
2023-01-17T13:42:52.253Z,61038.50
2023-01-17T13:45:24.387Z,61031.69
2023-01-17T13:47:54.214Z,61010.97
2023-01-17T13:50:50.474Z,61013.53
2023-01-17T13:53:56.330Z,61012.34
2023-01-17T13:56:38.849Z,61020.88
2023-01-17T13:59:29.285Z,61018.22
2023-01-17T14:01:59.145Z,61015.66
2023-01-17T14:05:12.482Z,61016.59
2023-01-17T14:07:48.580Z,61008.19
2023-01-17T14:10:35.018Z,61016.59
2023-01-17T14:13:05.541Z,61016.06
2023-01-17T14:15:36.547Z,60998.03
2023-01-17T14:18:08.214Z,60991.75
2023-01-17T14:21:10.602Z,61006.47
2023-01-17T14:24:04.468Z,61017.25
2023-01-17T14:26:48.175Z,61009.66
2023-01-17T14:29:47.851Z,60993.34
2023-01-17T14:32:19.662Z,60970.13
2023-01-17T14:34:52.631Z,60958.38
2023-01-17T14:37:43.611Z,60950.50
2023-01-17T14:40:19.779Z,60938.88
2023-01-17T14:42:54.178Z,60934.47
2023-01-17T14:45:28.282Z,60927.13
2023-01-17T14:47:58.588Z,60933.00
2023-01-17T14:50:31.431Z,60912.19
2023-01-17T14:53:18.075Z,60892.84
2023-01-17T14:56:00.583Z,60898.72
2023-01-17T14:58:31.898Z,60877.91
2023-01-17T15:01:03.501Z,60870.84
2023-01-17T15:03:41.808Z,60868.72
2023-01-17T15:06:17.991Z,60872.97
2023-01-17T15:08:47.193Z,60856.16
2023-01-17T15:11:22.378Z,60857.63
2023-01-17T15:13:54.847Z,60860.16
2023-01-17T15:16:26.595Z,60860.81
2023-01-17T15:18:57.225Z,60863.63
2023-01-17T15:21:30.993Z,60849.50
2023-01-17T15:24:02.271Z,60844.84
2023-01-17T15:26:43.451Z,60833.50
2023-01-17T15:29:21.434Z,60838.44
2023-01-17T15:31:54.062Z,60844.44
2023-01-17T15:34:28.646Z,60851.09
2023-01-17T15:37:00.845Z,60841.63
2023-01-17T15:39:31.982Z,60840.03
2023-01-17T15:42:04.636Z,60839.91
2023-01-17T15:44:47.550Z,60834.97
2023-01-17T15:47:33.287Z,60822.41
2023-01-17T15:50:03.993Z,60814.31
2023-01-17T15:52:33.729Z,60818.69
2023-01-17T15:55:14.199Z,60806.44
2023-01-17T15:57:47.676Z,60813.75
2023-01-17T16:00:23.884Z,60812.81
2023-01-17T16:02:56.193Z,60810.03
2023-01-17T16:05:43.721Z,60814.31
2023-01-17T16:08:39.588Z,60797.50
2023-01-17T16:11:09.611Z,60794.69
2023-01-17T16:13:42.191Z,60784.81
2023-01-17T16:16:17.382Z,60800.44
2023-01-17T16:18:47.611Z,60792.03
2023-01-17T16:21:23.563Z,60798.31
2023-01-17T16:23:54.048Z,60797.38
2023-01-17T16:26:22.891Z,60800.44
2023-01-17T16:28:51.869Z,60789.78
2023-01-17T16:31:20.659Z,60778.03
2023-01-17T16:33:51.741Z,60779.78
2023-01-17T16:36:21.378Z,60779.34
2023-01-17T16:38:53.177Z,60780.44
2023-01-17T16:41:22.551Z,60787.66
2023-01-17T16:44:01.210Z,60779.78
2023-01-17T16:46:30.684Z,60785.50
2023-01-17T16:49:01.669Z,60785.38
2023-01-17T16:51:30.013Z,60771.91
2023-01-17T16:53:59.763Z,60770.72
2023-01-17T16:56:28.157Z,60768.06
2023-01-17T16:58:56.637Z,60773.38
2023-01-17T17:01:25.494Z,60768.19
2023-01-17T17:03:53.862Z,60767.75
2023-01-17T17:06:22.233Z,60764.97
2023-01-17T17:08:50.573Z,60758.03
2023-01-17T17:11:23.145Z,60761.75
2023-01-17T17:13:52.724Z,60762.19
2023-01-17T17:16:23.815Z,60761.25
2023-01-17T17:18:57.376Z,60769.50
2023-01-17T17:21:26.261Z,60762.72
2023-01-17T17:23:58.136Z,60765.25
2023-01-17T17:26:31.210Z,60758.88
2023-01-17T17:29:00.135Z,60766.84
2023-01-17T17:31:30.147Z,60767.91
2023-01-17T17:34:07.319Z,60754.84
2023-01-17T17:36:37.041Z,60768.44
2023-01-17T17:39:09.267Z,60769.50
2023-01-17T17:41:42.442Z,60756.44
2023-01-17T17:44:10.937Z,60754.84
2023-01-17T17:46:39.525Z,60759.91
2023-01-17T17:49:07.924Z,60764.06
2023-01-17T17:51:38.527Z,60764.19
2023-01-17T17:54:10.140Z,60768.06
2023-01-17T17:56:41.208Z,60770.84
2023-01-17T17:59:12.567Z,60773.25
2023-01-17T18:01:41.095Z,60767.91
2023-01-17T18:04:12.313Z,60766.31
2023-01-17T18:06:41.440Z,60752.72
2023-01-17T18:09:12.122Z,60754.19
2023-01-17T18:11:43.853Z,60746.84
2023-01-17T18:14:15.458Z,60749.03
2023-01-17T18:16:45.646Z,60735.41
2023-01-17T18:19:16.138Z,60739.66
2023-01-17T18:21:44.978Z,60738.06
2023-01-17T18:24:16.037Z,60727.16
2023-01-17T18:26:47.839Z,60727.53
2023-01-17T18:29:18.816Z,60723.69
2023-01-17T18:31:50.133Z,60717.31
2023-01-17T18:34:23.799Z,60723.69
2023-01-17T18:36:53.156Z,60720.09
2023-01-17T18:39:24.402Z,60719.16
2023-01-17T18:41:54.283Z,60716.88
2023-01-17T18:44:22.906Z,60724.22
2023-01-17T18:46:51.391Z,60717.56
2023-01-17T18:49:20.076Z,60714.09
2023-01-17T18:51:51.091Z,60780.31
2023-01-17T18:54:21.993Z,60805.91
2023-01-17T18:56:51.052Z,60832.81
2023-01-17T18:59:21.564Z,60822.56
2023-01-17T19:01:50.399Z,60794.84
2023-01-17T19:04:19.330Z,60815.38
2023-01-17T19:06:49.226Z,60843.75
2023-01-17T19:09:18.201Z,60858.69
2023-01-17T19:11:47.533Z,60881.09
2023-01-17T19:14:16.135Z,60880.69
2023-01-17T19:16:45.860Z,60873.22
2023-01-17T19:19:16.486Z,60840.16
2023-01-17T19:21:44.865Z,60829.78
2023-01-17T19:24:15.497Z,60843.09
2023-01-17T19:26:44.040Z,60852.06
2023-01-17T19:29:12.479Z,60838.56
2023-01-17T19:31:43.295Z,60833.50
2023-01-17T19:34:14.790Z,60898.06
2023-01-17T19:36:43.992Z,60899.25
2023-01-17T19:39:12.581Z,60834.16
2023-01-17T19:41:44.567Z,60778.69
2023-01-17T19:44:15.163Z,60731.94
2023-01-17T19:46:44.042Z,60704.75
2023-01-17T19:49:13.770Z,60688.25
2023-01-17T19:51:42.052Z,60664.84
2023-01-17T19:54:10.635Z,60662.56
2023-01-17T19:56:38.987Z,60649.94
2023-01-17T19:59:07.344Z,60661.38
2023-01-17T20:01:36.346Z,60646.59
2023-01-17T20:04:05.907Z,60646.59
2023-01-17T20:06:37.337Z,60648.06
2023-01-17T20:09:07.062Z,60621.69
2023-01-17T20:11:35.406Z,60625.94
2023-01-17T20:14:05.511Z,60633.69
2023-01-17T20:16:36.572Z,60625.84
2023-01-17T20:19:04.979Z,60633.41
2023-01-17T20:21:35.205Z,60628.63
2023-01-17T20:24:04.289Z,60623.84
2023-01-17T20:26:35.888Z,60620.53
2023-01-17T20:29:10.473Z,60616.50
2023-01-17T20:31:40.565Z,60619.03
2023-01-17T20:34:11.627Z,60625.84
2023-01-17T20:36:42.711Z,60626.25
2023-01-17T20:39:13.728Z,60629.56
2023-01-17T20:41:44.683Z,60625.72
2023-01-17T20:44:15.318Z,60620.00
2023-01-17T20:46:44.366Z,60619.56
2023-01-17T20:49:16.061Z,60627.81
2023-01-17T20:51:47.324Z,60628.91
2023-01-17T20:54:18.597Z,60625.84
2023-01-17T20:56:47.935Z,60617.47
2023-01-17T20:59:18.673Z,60624.75
2023-01-17T21:01:47.740Z,60630.22
2023-01-17T21:04:16.828Z,60635.56
2023-01-17T21:06:46.585Z,60629.03
2023-01-17T21:09:17.268Z,60634.47
2023-01-17T21:11:45.688Z,60639.78
2023-01-17T21:14:14.575Z,60648.84
2023-01-17T21:16:43.323Z,60637.00
2023-01-17T21:19:15.835Z,60641.28
2023-01-17T21:21:44.179Z,60635.81
2023-01-17T21:24:18.451Z,60634.88
2023-01-17T21:26:47.334Z,60634.88
2023-01-17T21:29:16.441Z,60635.56
2023-01-17T21:31:45.350Z,60627.03
2023-01-17T21:34:14.716Z,60632.34
2023-01-17T21:36:44.046Z,60627.44
2023-01-17T21:39:17.126Z,60614.66
2023-01-17T21:41:48.028Z,60617.97
2023-01-17T21:44:20.336Z,60617.84
2023-01-17T21:46:50.083Z,60612.66
2023-01-17T21:49:19.191Z,60608.81
2023-01-17T21:52:05.162Z,60617.19
2023-01-17T21:54:52.337Z,60611.06
2023-01-17T21:57:39.988Z,60591.91
2023-01-17T22:00:14.446Z,60599.34
2023-01-17T22:02:44.427Z,60600.81
2023-01-17T22:05:13.366Z,60598.41
2023-01-17T22:08:01.894Z,60605.63
2023-01-17T22:10:31.593Z,60596.69
2023-01-17T22:13:00.135Z,60604.66
2023-01-17T22:15:28.556Z,60601.22
2023-01-17T22:17:57.142Z,60595.50
2023-01-17T22:20:25.775Z,60591.66
2023-01-17T22:22:54.190Z,60587.09
2023-01-17T22:25:23.352Z,60587.41
2023-01-17T22:27:52.988Z,60585.41
2023-01-17T22:30:21.495Z,60582.72
2023-01-17T22:32:49.804Z,60584.31
2023-01-17T22:35:18.312Z,60580.06
2023-01-17T22:37:47.366Z,60575.41
2023-01-17T22:40:16.058Z,60584.44
2023-01-17T22:42:44.365Z,60582.72
2023-01-17T22:45:14.854Z,60574.22
2023-01-17T22:47:44.717Z,60579.00
2023-01-17T22:50:13.971Z,60575.00
2023-01-17T22:52:42.271Z,60586.31
2023-01-17T22:55:12.171Z,60590.72
2023-01-17T22:57:40.537Z,60588.06
2023-01-17T23:00:14.518Z,60582.34
2023-01-17T23:02:44.658Z,60575.28
2023-01-17T23:05:13.057Z,60565.31
2023-01-17T23:07:44.306Z,60560.25
2023-01-17T23:10:34.896Z,60556.13
2023-01-17T23:13:03.246Z,60551.47
2023-01-17T23:15:49.002Z,60559.97
2023-01-17T23:18:36.039Z,60563.19
2023-01-17T23:21:04.359Z,60568.91
2023-01-17T23:23:33.717Z,60555.19
2023-01-17T23:26:02.396Z,60560.38
2023-01-17T23:28:29.713Z,60549.34
2023-01-17T23:31:05.010Z,60551.88
2023-01-17T23:33:34.779Z,60561.59
2023-01-17T23:36:03.083Z,60550.00
2023-01-17T23:38:30.555Z,60561.47
2023-01-17T23:41:20.881Z,60542.16
2023-01-17T23:43:52.761Z,60548.69
2023-01-17T23:46:25.375Z,60550.16
2023-01-17T23:48:55.890Z,60547.75
2023-01-17T23:51:24.300Z,60555.75
2023-01-17T23:53:57.333Z,60563.03
2023-01-17T23:56:25.893Z,60553.06
2023-01-17T23:58:54.251Z,60563.56
